Last 6 Hours

Alpine-Scott Top 8120'

15 Minute Data | America/Los_Angeles
as of 3/29/20 1:40 PM PDT
Date & Time Temp (°F) RH (%) Dew Pt (°F) Wet Bulb (°F) Wind Dir (°) Wind Spd (mph) Wind Gust (mph) WindChill (°F) Daily Min Temp (°F) Daily Max Temp (°F)
3/29/20 - 1330 27.5 96 26.5 27.1 SSW | 207 9.2 14.4 16.6 22.9 28.2
3/29/20 - 1315 27.5 96 26.6 27.1 SSW | 205 8.3 12.0 20.4 22.9 28.0
3/29/20 - 1300 27.2 96 26.3 26.8 SSW | 197 8.6 14.5 18.9 22.9 27.6
3/29/20 - 1245 26.9 96 25.9 26.5 SSW | 205 8.1 15.5 17.1 22.9 27.5
3/29/20 - 1230 25.4 96 24.4 25.0 SSW | 200 10.1 14.3 16.0 22.9 27.5
3/29/20 - 1215 27.1 97 26.4 26.8 SSW | 204 9.2 15.3 15.2 22.9 27.2
3/29/20 - 1200 25.8 96 25.0 25.5 SSW | 197 10.1 15.6 15.8 22.9 26.7
3/29/20 - 1145 25.8 96 24.9 25.5 SSW | 201 9.5 14.9 19.8 22.9 26.3
3/29/20 - 1130 25.4 96 24.5 24.9 SSW | 200 7.3 12.0 18.0 22.9 26.0
3/29/20 - 1115 25.4 96 24.5 25.1 SSW | 200 8.1 14.0 17.0 22.9 26.0
3/29/20 - 1100 24.8 97 24.0 24.5 SSW | 198 9.4 13.8 14.5 22.9 25.9
3/29/20 - 1045 25.9 97 25.1 25.6 S | 190 7.5 11.7 16.4 22.9 25.9
3/29/20 - 1030 25.0 97 24.3 24.8 SSW | 194 7.1 10.7 18.0 22.9 25.0
3/29/20 - 1015 24.8 97 24.1 24.5 SSW | 196 7.3 11.7 16.7 22.9 25.0
3/29/20 - 1000 24.6 97 23.8 24.3 SSW | 205 7.8 13.9 15.6 22.9 24.6
3/29/20 - 0945 24.4 97 23.6 24.1 SSW | 201 6.8 10.8 17.4 22.9 24.4
3/29/20 - 0930 24.2 97 23.4 23.9 SSW | 194 8.5 13.5 16.1 22.9 24.3
3/29/20 - 0915 24.0 97 23.2 23.6 SSW | 192 9.7 17.2 15.3 22.9 24.2
3/29/20 - 0900 23.9 97 23.1 23.6 SSW | 193 9.2 16.6 11.4 22.9 24.2
3/29/20 - 0845 23.8 97 23.0 23.5 SSW | 197 8.6 13.2 15.4 22.9 24.2
3/29/20 - 0830 24.0 97 23.3 23.7 SSW | 200 10.0 16.6 15.4 22.9 24.0
3/29/20 - 0815 23.7 97 22.9 23.4 SSW | 197 10.3 15.7 11.1 22.9 23.8
3/29/20 - 0800 23.5 97 22.7 23.1 SSW | 194 12.1 16.5 14.8 22.9 23.5
3/29/20 - 0745 23.4 97 22.7 23.1 SSW | 202 11.4 17.5 11.9 22.9 23.5
Max 27.5 97 26.6 27.1 - 12.1 17.5 20.4 22.9 28.2
Avg 25.2 97 24.3 24.8 - 8.9 14.2 16.0 - -
Min 23.4 96 22.7 23.1 - 6.8 10.7 11.1 22.9 23.5